Time;durP1;ratioP1;P1;durP2;ratioP2;P2;SDS_P1;SDS_P2;PMS_P1;PMS_P2;Temp;Humidity;BMP_temperature;BMP_pressure;BME280_temperature;BME280_humidity;BME280_pressure;Samples;Min_cycle;Max_cycle;Signal;HPM_P1;HPM_P2
2022/12/13 00:00:50;;;;;;;3.83;3.63;;;-5.20;98.00;;;;;;4994857;28;20228;-64
2022/12/13 00:03:17;;;;;;;4.35;3.15;;;-5.20;98.00;;;;;;4977512;28;20584;-64
2022/12/13 00:05:45;;;;;;;6.45;3.75;;;-5.10;98.00;;;;;;4995029;28;20263;-64
2022/12/13 00:08:13;;;;;;;3.85;3.05;;;-5.10;98.00;;;;;;4994696;28;20237;-64
2022/12/13 00:10:40;;;;;;;3.13;2.50;;;-5.20;98.00;;;;;;4994811;28;20209;-64
2022/12/13 00:13:07;;;;;;;5.65;2.80;;;-5.10;98.00;;;;;;4994561;28;20615;-64
2022/12/13 00:15:35;;;;;;;5.35;3.38;;;-5.10;98.00;;;;;;4977616;28;20657;-64
2022/12/13 00:18:02;;;;;;;3.17;2.75;;;-5.10;98.00;;;;;;4977562;28;20210;-64
2022/12/13 00:20:29;;;;;;;2.38;1.92;;;-5.10;98.00;;;;;;4994713;28;20204;-64
2022/12/13 00:22:56;;;;;;;15.18;4.53;;;-5.20;98.00;;;;;;4994881;28;20205;-64
2022/12/13 00:25:24;;;;;;;5.88;3.50;;;-5.10;98.00;;;;;;4994522;28;20216;-64
2022/12/13 00:27:51;;;;;;;4.10;2.85;;;-5.00;98.00;;;;;;4994662;28;20233;-64
2022/12/13 00:30:19;;;;;;;4.63;3.00;;;-5.00;98.00;;;;;;4994456;28;20671;-64
2022/12/13 00:32:46;;;;;;;2.35;1.85;;;-5.10;98.00;;;;;;4994636;28;20201;-64
2022/12/13 00:35:13;;;;;;;3.58;2.13;;;-5.00;98.00;;;;;;4994591;28;20205;-64
2022/12/13 00:37:40;;;;;;;4.00;3.42;;;-5.00;98.00;;;;;;4994474;28;20206;-64
2022/12/13 00:40:08;;;;;;;2.95;1.75;;;-5.20;98.00;;;;;;4994526;28;20686;-64
2022/12/13 00:42:36;;;;;;;3.67;2.55;;;-5.30;98.00;;;;;;4994218;28;20228;-64
2022/12/13 00:45:04;;;;;;;4.22;3.42;;;-5.40;98.00;;;;;;4994672;28;20193;-64
2022/12/13 00:47:31;;;;;;;3.17;2.97;;;-5.30;98.00;;;;;;4976919;28;20244;-64
2022/12/13 00:49:58;;;;;;;3.42;1.60;;;-5.10;98.00;;;;;;4994165;28;20198;-64
2022/12/13 00:52:26;;;;;;;5.07;4.25;;;-5.10;98.00;;;;;;4994020;28;20205;-64
2022/12/13 00:54:53;;;;;;;3.08;2.50;;;-5.10;98.00;;;;;;4993718;28;20206;-64
2022/12/13 00:57:21;;;;;;;3.75;3.65;;;-5.10;98.00;;;;;;4993263;28;20228;-64
2022/12/13 00:59:50;;;;;;;6.05;3.22;;;-5.10;98.00;;;;;;4976428;28;20723;-64
2022/12/13 01:02:17;;;;;;;5.53;3.50;;;-5.10;98.00;;;;;;4993682;28;20278;-64
2022/12/13 01:04:44;;;;;;;7.43;4.60;;;-5.10;98.00;;;;;;4993982;28;20652;-64
2022/12/13 01:07:11;;;;;;;2.65;2.45;;;-5.10;98.00;;;;;;4993582;28;20209;-65
2022/12/13 01:09:41;;;;;;;3.55;3.08;;;-5.20;98.00;;;;;;4993786;28;20208;-64
2022/12/13 01:12:09;;;;;;;5.00;4.05;;;-5.30;98.00;;;;;;4976548;28;20637;-64
2022/12/13 01:14:37;;;;;;;8.63;3.58;;;-5.30;98.00;;;;;;4993230;28;20213;-64
2022/12/13 01:17:06;;;;;;;5.50;3.28;;;-5.20;98.00;;;;;;4993665;28;20205;-64
2022/12/13 01:19:33;;;;;;;4.35;2.70;;;-5.10;98.00;;;;;;4993617;28;20197;-64
2022/12/13 01:22:02;;;;;;;6.93;2.85;;;-5.30;98.00;;;;;;4993630;28;20271;-64
2022/12/13 01:24:30;;;;;;;7.82;3.75;;;-5.40;98.00;;;;;;4993550;28;20835;-64
2022/12/13 01:26:58;;;;;;;9.65;5.07;;;-5.40;98.00;;;;;;4976468;28;20205;-64
2022/12/13 01:29:26;;;;;;;4.88;3.90;;;-5.40;98.00;;;;;;4993486;28;20201;-64
2022/12/13 01:31:54;;;;;;;3.13;2.30;;;-5.40;98.00;;;;;;4993472;28;20201;-64
2022/12/13 01:34:24;;;;;;;5.55;3.90;;;-5.40;98.00;;;;;;4993453;28;20220;-64
2022/12/13 01:36:51;;;;;;;8.63;4.82;;;-5.50;98.00;;;;;;4993501;28;20213;-64
2022/12/13 01:39:19;;;;;;;3.40;3.03;;;-5.60;98.00;;;;;;4993394;28;20208;-64
2022/12/13 01:41:49;;;;;;;10.32;3.90;;;-5.60;98.00;;;;;;4993332;28;20281;-64
2022/12/13 01:44:49;;;;;;;6.90;4.38;;;-5.50;98.00;;;;;;4993086;28;20652;-64
2022/12/13 01:47:19;;;;;;;3.88;3.22;;;-5.50;98.00;;;;;;4980452;28;20743;-64
2022/12/13 01:49:48;;;;;;;4.20;3.20;;;-5.60;98.00;;;;;;4993057;28;20205;-64
2022/12/13 01:52:16;;;;;;;6.20;2.72;;;-5.60;98.00;;;;;;4993123;28;20200;-64
2022/12/13 01:54:47;;;;;;;9.80;5.57;;;-5.60;98.00;;;;;;4992956;28;20209;-64
2022/12/13 01:57:18;;;;;;;6.05;3.90;;;-5.50;98.00;;;;;;4992999;28;20615;-64
2022/12/13 01:59:46;;;;;;;4.18;3.85;;;-5.50;98.00;;;;;;4992793;28;20208;-64
2022/12/13 02:02:15;;;;;;;3.88;2.90;;;-5.50;98.00;;;;;;4992689;28;20707;-64
2022/12/13 02:04:53;;;;;;;5.93;3.95;;;-5.60;98.00;;;;;;4992809;28;20573;-64
2022/12/13 02:07:24;;;;;;;2.08;1.95;;;-5.60;98.00;;;;;;4992631;28;20201;-64
2022/12/13 02:09:55;;;;;;;4.60;3.30;;;-5.50;98.00;;;;;;4992976;28;20221;-64
2022/12/13 02:12:22;;;;;;;3.58;3.38;;;-5.50;98.00;;;;;;4992602;28;20216;-64
2022/12/13 02:14:52;;;;;;;3.90;3.17;;;-5.60;98.00;;;;;;4993028;28;20204;-64
2022/12/13 02:17:27;;;;;;;11.13;4.07;;;-5.70;98.00;;;;;;4992854;28;20210;-64
2022/12/13 02:20:28;;;;;;;3.50;3.05;;;-5.70;98.00;;;;;;4992998;28;20238;-64
2022/12/13 02:23:17;;;;;;;4.75;4.13;;;-5.60;98.00;;;;;;4992709;28;20224;-64
2022/12/13 02:26:02;;;;;;;3.85;2.80;;;-5.50;98.00;;;;;;4992909;28;20550;-64
2022/12/13 02:28:44;;;;;;;1.85;1.77;;;-5.60;98.00;;;;;;4992811;28;20640;-64
2022/12/13 02:31:16;;;;;;;4.28;3.22;;;-5.60;98.00;;;;;;4992760;28;20209;-64
2022/12/13 02:33:52;;;;;;;6.93;3.17;;;-5.70;98.00;;;;;;4992929;28;20204;-64
2022/12/13 02:36:26;;;;;;;13.63;3.40;;;-5.70;98.00;;;;;;4998933;28;20630;-64
2022/12/13 02:38:58;;;;;;;3.00;2.88;;;-5.60;98.00;;;;;;4999180;28;20208;-64
2022/12/13 02:41:33;;;;;;;5.13;3.35;;;-5.60;98.00;;;;;;4998713;28;20565;-64
2022/12/13 02:44:07;;;;;;;4.43;2.40;;;-5.70;98.00;;;;;;4998897;28;20299;-64
2022/12/13 02:46:40;;;;;;;2.45;2.30;;;-5.80;98.00;;;;;;4998684;28;20211;-64
2022/12/13 02:49:09;;;;;;;4.88;4.30;;;-5.80;98.00;;;;;;4998923;28;20208;-64
2022/12/13 02:51:39;;;;;;;4.07;3.00;;;-5.70;98.00;;;;;;4998633;28;20211;-64
2022/12/13 02:54:06;;;;;;;2.85;2.42;;;-5.70;98.00;;;;;;4998914;28;20217;-64
2022/12/13 02:56:33;;;;;;;6.60;3.88;;;-5.90;98.00;;;;;;4998741;28;20205;-64
2022/12/13 02:59:03;;;;;;;2.92;2.72;;;-6.00;98.00;;;;;;4981473;28;20200;-64
2022/12/13 03:01:48;;;;;;;7.03;3.75;;;-6.10;98.00;;;;;;4998684;28;20226;-64
2022/12/13 03:04:26;;;;;;;2.42;2.25;;;-6.10;98.00;;;;;;4998821;28;20204;-64
2022/12/13 03:07:03;;;;;;;3.67;3.05;;;-6.10;98.00;;;;;;4998792;28;20208;-64
2022/12/13 03:09:44;;;;;;;4.97;2.47;;;-6.00;98.00;;;;;;4998859;28;20201;-64
2022/12/13 03:15:15;;;;;;;3.10;2.47;;;-6.20;98.00;;;;;;4998985;28;20215;-64
2022/12/13 03:17:49;;;;;;;2.63;2.42;;;-6.10;98.00;;;;;;4998938;28;20261;-64
2022/12/13 03:20:19;;;;;;;12.50;3.13;;;-6.10;98.00;;;;;;4999033;28;20274;-64
2022/12/13 03:22:46;;;;;;;2.50;2.30;;;-6.00;98.00;;;;;;4998818;28;20298;-64
2022/12/13 03:25:13;;;;;;;6.65;4.18;;;-5.80;98.00;;;;;;4981529;28;20197;-64
2022/12/13 03:27:41;;;;;;;10.52;3.70;;;-5.80;98.00;;;;;;4998482;28;20204;-64
2022/12/13 03:30:10;;;;;;;2.75;2.40;;;-5.80;98.00;;;;;;4998453;28;20216;-64
2022/12/13 03:32:37;;;;;;;4.25;2.65;;;-5.80;98.00;;;;;;4981350;28;20231;-64
2022/12/13 03:35:06;;;;;;;4.55;3.25;;;-5.80;98.00;;;;;;4998496;28;20581;-64
2022/12/13 03:37:34;;;;;;;2.53;2.30;;;-5.80;98.00;;;;;;4998042;28;20209;-64
2022/12/13 03:40:02;;;;;;;4.68;4.03;;;-5.80;98.00;;;;;;4998451;28;20209;-64
2022/12/13 03:42:29;;;;;;;4.32;2.83;;;-5.80;98.00;;;;;;4980888;28;20232;-64
2022/12/13 03:44:57;;;;;;;5.10;2.03;;;-5.80;98.00;;;;;;4998505;28;20207;-64
2022/12/13 03:47:24;;;;;;;2.25;1.95;;;-5.80;98.00;;;;;;4993932;28;20204;-64
2022/12/13 03:49:51;;;;;;;2.80;2.60;;;-5.80;98.00;;;;;;4995361;28;20201;-64
2022/12/13 03:52:19;;;;;;;3.13;2.92;;;-5.90;98.00;;;;;;4995033;28;20204;-64
2022/12/13 03:54:46;;;;;;;3.28;2.33;;;-5.90;98.00;;;;;;4995158;28;20201;-64
2022/12/13 03:57:15;;;;;;;4.80;2.25;;;-5.80;98.00;;;;;;4995181;28;20201;-64
2022/12/13 03:59:42;;;;;;;2.30;2.05;;;-5.80;98.00;;;;;;4978044;28;20204;-64
2022/12/13 04:02:09;;;;;;;3.63;2.47;;;-5.80;98.00;;;;;;4995151;28;20236;-64
2022/12/13 04:04:36;;;;;;;2.85;2.10;;;-5.90;98.00;;;;;;4994974;28;20200;-64
2022/12/13 04:07:03;;;;;;;4.47;3.72;;;-5.80;98.00;;;;;;4994952;28;20547;-64
2022/12/13 04:09:33;;;;;;;5.00;3.58;;;-5.80;98.00;;;;;;4995124;28;20205;-64
2022/12/13 04:14:45;;;;;;;4.38;3.33;;;-5.80;98.00;;;;;;4995253;28;20204;-64
2022/12/13 04:17:12;;;;;;;2.50;2.30;;;-5.90;98.00;;;;;;4994970;28;20205;-64
2022/12/13 04:19:39;;;;;;;2.58;2.40;;;-5.80;98.00;;;;;;4995026;28;20216;-64
2022/12/13 04:22:06;;;;;;;7.57;3.42;;;-5.80;98.00;;;;;;4994998;28;20659;-64
2022/12/13 04:24:36;;;;;;;3.85;3.38;;;-5.80;98.00;;;;;;4994582;28;20235;-64
2022/12/13 04:27:03;;;;;;;3.95;3.45;;;-5.90;98.00;;;;;;4994394;28;20205;-64
2022/12/13 04:29:31;;;;;;;8.88;4.53;;;-5.90;98.00;;;;;;4993996;28;20208;-64
2022/12/13 04:32:00;;;;;;;4.60;3.10;;;-5.90;98.00;;;;;;4994425;28;20220;-64
2022/12/13 04:34:27;;;;;;;3.13;2.65;;;-5.80;98.00;;;;;;4994374;28;20664;-64
2022/12/13 04:36:54;;;;;;;12.05;5.95;;;-5.80;98.00;;;;;;4994461;28;20208;-64
2022/12/13 04:39:21;;;;;;;11.30;5.85;;;-5.80;98.00;;;;;;4994467;28;20540;-64
2022/12/13 04:41:50;;;;;;;11.05;6.85;;;-5.90;98.00;;;;;;4976955;28;20271;-64
2022/12/13 04:44:18;;;;;;;4.38;3.47;;;-5.80;98.00;;;;;;4994282;28;20213;-64
2022/12/13 04:46:46;;;;;;;11.25;5.20;;;-5.80;98.00;;;;;;4994223;28;20277;-64
2022/12/13 04:49:13;;;;;;;4.38;4.05;;;-5.70;98.00;;;;;;4994118;28;20202;-64
2022/12/13 04:51:40;;;;;;;3.90;3.13;;;-5.90;98.00;;;;;;4993995;28;20205;-64
2022/12/13 04:54:07;;;;;;;4.75;3.67;;;-5.70;98.00;;;;;;4994204;28;20212;-64
2022/12/13 04:56:34;;;;;;;10.55;4.70;;;-5.90;98.00;;;;;;4993946;28;20237;-64
2022/12/13 04:59:02;;;;;;;10.90;3.63;;;-5.90;98.00;;;;;;4993693;28;20255;-64
2022/12/13 05:01:29;;;;;;;8.65;5.70;;;-6.00;98.00;;;;;;4994088;28;20236;-64
2022/12/13 05:03:56;;;;;;;4.57;4.30;;;-6.10;98.00;;;;;;4993923;28;20220;-64
2022/12/13 05:06:24;;;;;;;5.20;2.85;;;-6.00;98.00;;;;;;4993774;28;20807;-64
2022/12/13 05:08:51;;;;;;;12.98;5.30;;;-6.00;98.00;;;;;;4993285;28;20612;-64
2022/12/13 05:11:18;;;;;;;4.13;3.90;;;-5.80;98.00;;;;;;4994012;28;20220;-64
2022/12/13 05:13:45;;;;;;;3.05;1.88;;;-5.80;98.00;;;;;;4993679;28;20204;-64
2022/12/13 05:16:14;;;;;;;1.70;1.67;;;-5.70;98.00;;;;;;4976687;28;20217;-64
2022/12/13 05:18:42;;;;;;;2.85;2.15;;;-5.70;98.00;;;;;;4993589;28;20302;-64
2022/12/13 05:21:11;;;;;;;4.25;2.70;;;-5.60;98.00;;;;;;4993648;28;20201;-64
2022/12/13 05:23:39;;;;;;;3.05;2.67;;;-5.60;98.00;;;;;;4993443;28;20283;-64
2022/12/13 05:26:06;;;;;;;2.95;2.45;;;-5.70;98.00;;;;;;4993357;28;20656;-64
2022/12/13 05:28:37;;;;;;;2.92;2.08;;;-5.70;98.00;;;;;;4993406;28;20657;-64
2022/12/13 05:31:08;;;;;;;3.90;2.35;;;-5.70;98.00;;;;;;4993340;28;20217;-64
2022/12/13 05:33:36;;;;;;;1.73;1.63;;;-5.70;98.00;;;;;;4992712;28;20201;-64
2022/12/13 05:36:04;;;;;;;6.18;2.05;;;-5.60;98.00;;;;;;4992733;28;20206;-64
2022/12/13 05:38:32;;;;;;;2.05;1.75;;;-5.70;98.00;;;;;;4975628;28;20205;-64
2022/12/13 05:40:59;;;;;;;1.98;1.92;;;-5.80;98.00;;;;;;4993291;28;20201;-64
2022/12/13 05:43:26;;;;;;;2.00;1.92;;;-5.90;98.00;;;;;;4975915;28;20225;-64
2022/12/13 05:45:53;;;;;;;2.83;1.88;;;-5.90;98.00;;;;;;4993060;28;20293;-64
2022/12/13 05:48:20;;;;;;;2.50;2.17;;;-5.80;98.00;;;;;;4993200;28;20679;-64
2022/12/13 05:50:55;;;;;;;7.93;2.28;;;-5.80;98.00;;;;;;4993017;28;20529;-64
2022/12/13 05:53:22;;;;;;;3.08;2.05;;;-5.80;98.00;;;;;;4993056;28;20211;-64
2022/12/13 05:55:49;;;;;;;2.55;2.08;;;-5.80;98.00;;;;;;4993029;28;20200;-64
2022/12/13 05:58:16;;;;;;;2.00;1.92;;;-5.70;98.00;;;;;;4993154;28;20205;-64
2022/12/13 06:00:43;;;;;;;2.72;2.30;;;-5.70;98.00;;;;;;4993097;28;20315;-64
2022/12/13 06:03:11;;;;;;;1.85;1.85;;;-5.80;98.00;;;;;;4993081;28;20615;-64
2022/12/13 06:05:38;;;;;;;1.80;1.50;;;-5.90;98.00;;;;;;4993372;28;20205;-64
2022/12/13 06:08:09;;;;;;;2.63;2.25;;;-5.90;98.00;;;;;;4992757;28;20209;-64
2022/12/13 06:10:36;;;;;;;4.03;2.95;;;-5.90;98.00;;;;;;4992035;28;20208;-64
2022/12/13 06:13:04;;;;;;;4.05;2.85;;;-5.90;98.00;;;;;;4992758;28;20201;-64
2022/12/13 06:15:31;;;;;;;3.03;2.40;;;-5.90;98.00;;;;;;4992717;28;20244;-64
2022/12/13 06:18:00;;;;;;;3.50;3.03;;;-5.90;98.00;;;;;;4992657;28;20244;-64
2022/12/13 06:20:27;;;;;;;2.70;2.50;;;-5.90;98.00;;;;;;4992794;28;20217;-64
2022/12/13 06:22:54;;;;;;;4.35;2.65;;;-5.90;98.00;;;;;;4992402;28;20220;-64
2022/12/13 06:25:22;;;;;;;2.58;2.15;;;-5.80;98.00;;;;;;4992690;28;20232;-64
2022/12/13 06:27:50;;;;;;;3.47;3.28;;;-5.70;98.00;;;;;;4992029;28;20232;-64
2022/12/13 06:30:17;;;;;;;2.25;2.05;;;-5.70;98.00;;;;;;4992636;28;20202;-64
2022/12/13 06:32:48;;;;;;;5.53;3.45;;;-5.70;98.00;;;;;;4992425;28;20264;-64
2022/12/13 06:35:15;;;;;;;7.78;3.97;;;-5.60;98.00;;;;;;4992575;28;20209;-64
2022/12/13 06:37:43;;;;;;;2.15;1.73;;;-5.70;98.00;;;;;;4992454;28;20200;-64
2022/12/13 06:40:10;;;;;;;1.95;1.88;;;-5.70;98.00;;;;;;4992462;28;20696;-64
2022/12/13 06:42:41;;;;;;;2.95;2.67;;;-5.80;98.00;;;;;;4992379;28;20224;-64
2022/12/13 06:45:09;;;;;;;3.60;2.20;;;-5.80;98.00;;;;;;4992453;28;20786;-64
2022/12/13 06:47:37;;;;;;;4.60;2.50;;;-6.00;98.00;;;;;;4992483;28;20292;-64
2022/12/13 06:50:05;;;;;;;4.03;2.05;;;-6.10;98.00;;;;;;4992528;28;20663;-64
2022/12/13 06:52:32;;;;;;;3.28;3.00;;;-6.10;98.00;;;;;;4992455;28;20231;-64
2022/12/13 06:54:59;;;;;;;6.60;2.63;;;-6.00;98.00;;;;;;4992480;28;20209;-64
2022/12/13 06:57:26;;;;;;;1.67;1.60;;;-6.10;98.00;;;;;;4992512;28;20197;-64
2022/12/13 06:59:56;;;;;;;5.90;2.38;;;-6.20;98.00;;;;;;4992363;28;20200;-64
2022/12/13 07:02:24;;;;;;;5.47;3.25;;;-6.20;98.00;;;;;;4991298;28;20209;-64
2022/12/13 07:04:51;;;;;;;6.28;3.72;;;-6.00;98.00;;;;;;4992238;28;20232;-64
2022/12/13 07:07:19;;;;;;;3.70;2.45;;;-5.90;98.00;;;;;;4991925;28;20296;-64
2022/12/13 07:09:46;;;;;;;3.95;2.33;;;-5.80;98.00;;;;;;4992097;28;20206;-64
2022/12/13 07:12:13;;;;;;;1.88;1.77;;;-5.80;98.00;;;;;;4991981;28;20535;-64
2022/12/13 07:14:40;;;;;;;2.70;2.50;;;-5.90;98.00;;;;;;4992176;28;20673;-64
2022/12/13 07:17:09;;;;;;;5.88;2.75;;;-5.90;98.00;;;;;;4992081;28;20534;-64
2022/12/13 07:19:36;;;;;;;4.25;3.55;;;-5.80;98.00;;;;;;4992105;28;20712;-64
2022/12/13 07:22:05;;;;;;;3.08;2.17;;;-5.80;98.00;;;;;;4995095;28;20226;-64
2022/12/13 07:24:32;;;;;;;2.20;2.05;;;-5.70;98.00;;;;;;4995810;28;20231;-64
2022/12/13 07:26:59;;;;;;;2.17;2.03;;;-5.50;98.00;;;;;;4995679;28;20336;-60
2022/12/13 07:29:26;;;;;;;2.50;2.30;;;-5.50;98.00;;;;;;4995768;28;20344;-60
2022/12/13 07:31:53;;;;;;;1.52;1.42;;;-5.50;98.00;;;;;;4995625;28;20209;-60
2022/12/13 07:34:22;;;;;;;2.95;1.77;;;-5.80;98.00;;;;;;4995664;28;20300;-60
2022/12/13 07:36:49;;;;;;;1.45;1.38;;;-5.70;98.00;;;;;;4995731;28;20208;-60
2022/12/13 07:39:19;;;;;;;1.92;1.83;;;-5.70;98.00;;;;;;4978318;28;20201;-61
2022/12/13 07:41:46;;;;;;;2.50;1.73;;;-5.80;98.00;;;;;;4995760;28;20300;-60
2022/12/13 07:44:13;;;;;;;6.55;3.55;;;-5.80;98.00;;;;;;4995126;28;20225;-60
2022/12/13 07:46:40;;;;;;;2.38;2.17;;;-5.80;98.00;;;;;;4995077;28;20851;-61
2022/12/13 07:49:07;;;;;;;2.25;2.05;;;-5.70;98.00;;;;;;4995251;28;20202;-60
2022/12/13 07:51:36;;;;;;;2.78;1.77;;;-5.70;98.00;;;;;;4995597;28;20554;-60
2022/12/13 07:54:04;;;;;;;2.75;2.55;;;-5.70;98.00;;;;;;4995413;28;20204;-60
2022/12/13 07:56:32;;;;;;;6.47;3.45;;;-5.50;98.00;;;;;;4995410;28;20213;-61
2022/12/13 07:58:59;;;;;;;2.78;2.13;;;-5.40;98.00;;;;;;4995209;28;20229;-60
2022/12/13 08:01:27;;;;;;;3.55;3.10;;;-5.40;98.00;;;;;;4995217;28;20208;-60
2022/12/13 08:03:54;;;;;;;6.75;3.00;;;-5.60;98.00;;;;;;4994839;28;20225;-60
2022/12/13 08:06:22;;;;;;;5.78;3.53;;;-5.60;98.00;;;;;;4994743;28;20220;-60
2022/12/13 08:08:50;;;;;;;6.20;2.33;;;-5.50;98.00;;;;;;4995178;28;20209;-60
2022/12/13 08:11:17;;;;;;;3.05;2.85;;;-5.50;98.00;;;;;;4994894;28;20194;-60
2022/12/13 08:13:44;;;;;;;1.77;1.73;;;-5.40;98.00;;;;;;4995068;28;20690;-60
2022/12/13 08:16:16;;;;;;;11.60;4.40;;;-5.30;98.00;;;;;;4994743;28;20205;-61
2022/12/13 08:18:46;;;;;;;2.22;2.03;;;-5.10;98.00;;;;;;4995042;28;20264;-60
2022/12/13 08:21:14;;;;;;;4.82;2.55;;;-5.00;98.00;;;;;;4994582;28;20209;-60
2022/12/13 08:23:41;;;;;;;5.55;3.83;;;-4.90;98.00;;;;;;4961584;28;20312;-61
2022/12/13 08:26:10;;;;;;;4.07;3.88;;;-4.80;98.00;;;;;;4994694;28;20205;-60
2022/12/13 08:28:37;;;;;;;8.48;4.07;;;-4.70;98.00;;;;;;4994600;28;20201;-60
2022/12/13 08:31:06;;;;;;;6.55;3.78;;;-4.60;98.00;;;;;;4994654;28;20592;-60
2022/12/13 08:33:34;;;;;;;4.28;2.40;;;-4.50;98.00;;;;;;4993984;28;20220;-60
2022/12/13 08:36:09;;;;;;;2.35;2.17;;;-4.50;98.00;;;;;;4976823;28;20214;-60
2022/12/13 08:38:36;;;;;;;8.05;4.65;;;-4.50;98.00;;;;;;4977272;28;20212;-60
2022/12/13 08:41:04;;;;;;;3.08;2.72;;;-4.50;98.00;;;;;;4977391;28;20212;-61
2022/12/13 08:43:32;;;;;;;3.03;2.80;;;-4.60;98.00;;;;;;4998994;28;20227;-60
2022/12/13 08:45:59;;;;;;;2.70;2.55;;;-4.60;98.00;;;;;;5014313;28;20205;-60
2022/12/13 08:48:26;;;;;;;3.60;2.00;;;-4.50;98.00;;;;;;5012338;28;20208;-62
2022/12/13 08:50:53;;;;;;;3.28;3.17;;;-4.50;98.00;;;;;;5008394;28;20564;-61
2022/12/13 08:53:21;;;;;;;3.25;2.47;;;-4.30;98.00;;;;;;5011052;28;20196;-62
2022/12/13 08:55:48;;;;;;;6.22;3.53;;;-4.30;98.00;;;;;;5011173;28;20201;-62
2022/12/13 08:58:15;;;;;;;5.20;3.03;;;-4.10;98.00;;;;;;5010936;28;20247;-62
2022/12/13 09:00:44;;;;;;;2.05;1.30;;;-4.00;98.00;;;;;;5010923;28;20567;-64
2022/12/13 09:03:11;;;;;;;2.28;2.08;;;-4.00;98.00;;;;;;5010933;28;20667;-62
2022/12/13 09:05:38;;;;;;;4.47;1.98;;;-3.90;98.00;;;;;;4993368;28;20208;-62
2022/12/13 09:08:06;;;;;;;1.65;1.48;;;-3.80;98.00;;;;;;5010856;28;20209;-62
2022/12/13 09:10:33;;;;;;;5.28;2.72;;;-3.80;98.00;;;;;;4993371;28;20203;-61
2022/12/13 09:13:00;;;;;;;2.10;1.95;;;-3.70;98.00;;;;;;5010698;28;20205;-61
2022/12/13 09:15:27;;;;;;;2.63;1.85;;;-3.70;98.00;;;;;;5010685;28;20219;-61
2022/12/13 09:17:56;;;;;;;2.50;2.15;;;-3.60;98.00;;;;;;5010636;28;20568;-61
2022/12/13 09:20:24;;;;;;;1.90;1.80;;;-3.60;98.00;;;;;;5010324;28;20205;-61
2022/12/13 09:22:53;;;;;;;2.63;2.42;;;-3.50;98.00;;;;;;5008040;28;20201;-62
2022/12/13 09:25:20;;;;;;;1.77;1.67;;;-3.40;98.00;;;;;;4992908;28;20295;-61
2022/12/13 09:27:47;;;;;;;4.20;2.08;;;-3.40;98.00;;;;;;4993368;28;20608;-61
2022/12/13 09:30:15;;;;;;;2.17;2.00;;;-3.30;98.00;;;;;;4998923;28;20830;-61
2022/12/13 09:32:48;;;;;;;2.10;1.88;;;-3.20;98.00;;;;;;5012891;28;20207;-60
2022/12/13 09:35:17;;;;;;;1.42;1.33;;;-3.00;98.00;;;;;;5012331;28;20291;-60
2022/12/13 09:37:44;;;;;;;2.90;2.33;;;-2.90;98.00;;;;;;5012785;28;20530;-60
2022/12/13 09:40:18;;;;;;;2.75;1.80;;;-2.80;98.00;;;;;;5012884;28;20212;-61
2022/12/13 09:42:48;;;;;;;5.07;1.83;;;-2.70;98.00;;;;;;5012766;28;20208;-61
2022/12/13 09:45:17;;;;;;;4.65;2.03;;;-2.70;98.00;;;;;;5011911;28;20224;-60
2022/12/13 09:47:47;;;;;;;2.55;1.67;;;-2.60;98.00;;;;;;5012531;28;20212;-61
2022/12/13 09:50:20;;;;;;;2.67;2.40;;;-2.50;98.00;;;;;;5012409;28;20581;-60
2022/12/13 09:52:47;;;;;;;3.90;2.50;;;-2.40;98.00;;;;;;5012352;28;20365;-60
2022/12/13 09:55:21;;;;;;;2.15;1.95;;;-2.20;98.00;;;;;;5012520;28;20200;-60
2022/12/13 09:57:49;;;;;;;4.55;2.30;;;-2.30;98.00;;;;;;5012515;28;20221;-61
2022/12/13 10:00:19;;;;;;;1.65;1.60;;;-2.30;98.00;;;;;;5012518;28;20303;-61
2022/12/13 10:02:48;;;;;;;2.33;2.13;;;-2.30;98.00;;;;;;5012371;28;20212;-61
2022/12/13 10:05:21;;;;;;;2.13;2.00;;;-2.20;98.00;;;;;;5011710;28;20601;-61
2022/12/13 10:07:50;;;;;;;3.47;1.83;;;-2.10;98.00;;;;;;5013276;28;20208;-61
2022/12/13 10:10:17;;;;;;;2.63;1.83;;;-2.00;98.00;;;;;;5030843;28;20250;-61
2022/12/13 10:12:53;;;;;;;2.60;2.05;;;-1.90;98.00;;;;;;5030520;28;20205;-61
2022/12/13 10:15:23;;;;;;;1.70;1.42;;;-1.80;98.00;;;;;;5031056;28;20240;-61
2022/12/13 10:17:52;;;;;;;3.58;2.15;;;-1.80;98.00;;;;;;5030649;28;20208;-61
2022/12/13 10:20:27;;;;;;;1.80;1.65;;;-1.70;98.00;;;;;;5030323;28;20207;-61
2022/12/13 10:22:57;;;;;;;1.75;1.60;;;-1.80;98.00;;;;;;5030598;28;20210;-62
2022/12/13 10:25:47;;;;;;;1.95;1.70;;;-1.70;98.00;;;;;;5030791;28;20222;-61
2022/12/13 10:28:20;;;;;;;7.18;1.73;;;-1.60;98.00;;;;;;5030883;28;20227;-61
2022/12/13 10:30:48;;;;;;;2.38;2.17;;;-1.50;98.00;;;;;;5032093;28;20569;-61
2022/12/13 10:33:24;;;;;;;2.22;1.58;;;-1.40;98.00;;;;;;5031737;28;20201;-61
2022/12/13 10:36:09;;;;;;;2.47;1.92;;;-1.40;98.00;;;;;;5032363;28;20259;-61
2022/12/13 10:38:38;;;;;;;3.72;2.25;;;-1.40;98.00;;;;;;5031894;28;20249;-61
2022/12/13 10:41:28;;;;;;;2.38;1.95;;;-1.50;98.00;;;;;;5031982;28;20207;-62
2022/12/13 10:44:17;;;;;;;2.95;1.60;;;-1.50;98.00;;;;;;5031562;28;20227;-61
2022/12/13 10:46:53;;;;;;;2.15;1.98;;;-1.50;98.00;;;;;;5031552;28;20216;-61
2022/12/13 10:49:22;;;;;;;3.03;1.80;;;-1.40;98.00;;;;;;5031516;28;20210;-61
2022/12/13 10:51:53;;;;;;;2.08;1.92;;;-1.40;98.00;;;;;;5031627;28;20250;-62
2022/12/13 10:54:28;;;;;;;3.58;1.88;;;-1.40;98.00;;;;;;5031628;28;20204;-61
2022/12/13 10:56:59;;;;;;;2.28;1.73;;;-1.20;98.00;;;;;;5034793;28;20209;-61
2022/12/13 10:59:32;;;;;;;3.10;2.10;;;-1.10;98.00;;;;;;5035553;28;20242;-62
2022/12/13 11:02:00;;;;;;;3.13;1.80;;;-0.90;98.00;;;;;;5035566;28;21008;-61
2022/12/13 11:04:30;;;;;;;4.05;1.98;;;-0.80;98.00;;;;;;5035294;28;20212;-61
2022/12/13 11:07:00;;;;;;;1.73;1.65;;;-0.70;98.00;;;;;;5035437;28;20253;-61
2022/12/13 11:09:30;;;;;;;2.33;2.15;;;-0.70;98.00;;;;;;5035367;28;20204;-61
2022/12/13 11:12:02;;;;;;;3.05;2.28;;;-0.50;98.00;;;;;;5035432;28;20204;-61
2022/12/13 11:14:33;;;;;;;8.30;2.73;;;-0.40;98.00;;;;;;5035322;28;20209;-61
2022/12/13 11:17:07;;;;;;;2.95;1.77;;;-0.40;98.00;;;;;;5035265;28;20475;-61
2022/12/13 11:19:39;;;;;;;2.20;1.80;;;-0.40;98.00;;;;;;5035205;28;20667;-61
2022/12/13 11:22:09;;;;;;;3.40;2.90;;;-0.30;98.00;;;;;;5035166;28;20465;-61
2022/12/13 11:24:41;;;;;;;3.20;2.40;;;-0.30;98.00;;;;;;5035215;28;20486;-62
2022/12/13 11:27:28;;;;;;;2.27;1.73;;;-0.30;98.00;;;;;;5035337;28;20545;-61
2022/12/13 11:30:08;;;;;;;2.45;2.25;;;-0.10;98.00;;;;;;5035507;28;20507;-61
2022/12/13 11:32:52;;;;;;;7.20;2.30;;;0.00;98.00;;;;;;5034710;28;20240;-61
2022/12/13 11:35:30;;;;;;;4.22;2.28;;;0.10;98.00;;;;;;5035092;28;20268;-61
2022/12/13 11:38:07;;;;;;;2.07;1.57;;;0.20;98.00;;;;;;5034678;28;20207;-61
2022/12/13 11:40:42;;;;;;;4.20;2.13;;;0.30;98.00;;;;;;5034761;28;20455;-61
2022/12/13 11:43:20;;;;;;;5.40;2.40;;;0.30;98.00;;;;;;5034631;28;20546;-61
2022/12/13 11:45:53;;;;;;;2.30;1.93;;;0.30;98.00;;;;;;5034563;28;20489;-61
2022/12/13 11:48:25;;;;;;;4.23;1.87;;;0.40;98.00;;;;;;5034214;28;20464;-61
2022/12/13 11:50:56;;;;;;;4.50;2.33;;;0.40;98.00;;;;;;5034687;28;20468;-61
2022/12/13 11:53:30;;;;;;;3.40;2.93;;;0.40;98.00;;;;;;5034467;28;20463;-62
2022/12/13 11:56:07;;;;;;;1.83;1.73;;;0.40;98.00;;;;;;5034698;28;20521;-61
2022/12/13 11:58:39;;;;;;;2.30;1.97;;;0.50;98.00;;;;;;5034309;28;20465;-61
2022/12/13 12:01:11;;;;;;;3.40;1.60;;;0.60;98.00;;;;;;5034621;28;20875;-61
2022/12/13 12:03:43;;;;;;;4.63;2.63;;;0.50;98.00;;;;;;5034467;28;20856;-61
2022/12/13 12:06:17;;;;;;;2.47;1.93;;;0.50;98.00;;;;;;5034199;28;20578;-61
2022/12/13 12:08:53;;;;;;;2.37;1.77;;;0.60;98.00;;;;;;5033464;28;20463;-61
2022/12/13 12:11:28;;;;;;;2.80;1.73;;;0.60;98.00;;;;;;5034488;28;20465;-61
2022/12/13 12:14:00;;;;;;;2.97;2.20;;;0.60;98.00;;;;;;5034446;28;20511;-61
2022/12/13 12:16:35;;;;;;;2.30;2.10;;;0.70;98.00;;;;;;5034286;28;20460;-61
2022/12/13 12:19:02;;;;;;;2.60;1.70;;;0.60;98.00;;;;;;5034571;28;20460;-61
2022/12/13 12:21:38;;;;;;;8.27;2.03;;;0.80;98.00;;;;;;5034345;28;20974;-61
2022/12/13 12:24:20;;;;;;;1.73;1.70;;;0.90;98.00;;;;;;5034161;28;20501;-61
2022/12/13 12:26:55;;;;;;;2.67;2.07;;;1.00;98.00;;;;;;5033769;28;20473;-61
2022/12/13 12:29:57;;;;;;;2.03;1.87;;;1.20;98.00;;;;;;5034064;28;20468;-61
2022/12/13 12:32:33;;;;;;;3.93;2.30;;;1.30;98.00;;;;;;5033628;28;20464;-61
2022/12/13 12:35:13;;;;;;;2.97;1.70;;;1.50;98.00;;;;;;5033793;28;20457;-61
2022/12/13 12:37:49;;;;;;;2.13;1.97;;;1.80;98.00;;;;;;5033778;28;20548;-61
2022/12/13 12:40:39;;;;;;;2.70;1.80;;;2.10;98.00;;;;;;5033709;28;20532;-62
2022/12/13 12:43:15;;;;;;;3.27;2.30;;;2.10;98.00;;;;;;5032932;28;20466;-60
2022/12/13 12:45:58;;;;;;;3.00;2.00;;;2.10;98.00;;;;;;5023994;28;20493;-61
2022/12/13 12:48:42;;;;;;;5.53;2.87;;;2.10;98.00;;;;;;5019856;28;20454;-61
2022/12/13 12:51:17;;;;;;;2.30;1.93;;;2.10;98.00;;;;;;5020730;28;20802;-61
2022/12/13 12:53:51;;;;;;;3.23;2.07;;;2.10;98.00;;;;;;5027666;28;20469;-63
2022/12/13 12:56:32;;;;;;;1.87;1.80;;;2.10;98.00;;;;;;5033371;28;20490;-63
2022/12/13 12:59:11;;;;;;;3.27;2.00;;;2.00;98.00;;;;;;5033605;28;20457;-62
2022/12/13 13:01:51;;;;;;;2.20;1.63;;;2.10;98.00;;;;;;5033324;28;20453;-62
2022/12/13 13:04:25;;;;;;;3.00;2.30;;;2.00;98.00;;;;;;5033358;28;20910;-63
2022/12/13 13:06:58;;;;;;;5.63;3.10;;;2.00;98.00;;;;;;5033380;28;20473;-62
2022/12/13 13:09:29;;;;;;;4.47;2.50;;;1.90;98.00;;;;;;5031317;28;20465;-62